Time;durP1;ratioP1;P1;durP2;ratioP2;P2;SDS_P1;SDS_P2;PMS_P1;PMS_P2;Temp;Humidity;BMP_temperature;BMP_pressure;BME280_temperature;BME280_humidity;BME280_pressure;Samples;Min_cycle;Max_cycle;Signal;HPM_P1;HPM_P2
2023/11/09 00:03:49;;;;;;;3.47;2.65;;;4.20;99.90;;;;;;5596087;23;20573;-88
2023/11/09 00:06:18;;;;;;;0.70;0.70;;;4.20;99.90;;;;;;5376687;23;20232;-90
2023/11/09 00:08:45;;;;;;;0.90;0.90;;;4.30;99.90;;;;;;5143264;23;20236;-89
2023/11/09 00:13:50;;;;;;;1.92;1.83;;;4.00;99.90;;;;;;5080729;23;20212;-91
2023/11/09 00:18:56;;;;;;;2.85;2.05;;;3.90;99.90;;;;;;5947434;23;20626;-91
2023/11/09 00:24:10;;;;;;;2.20;2.00;;;3.90;99.90;;;;;;5963078;23;20415;-91
2023/11/09 00:50:49;;;;;;;1.15;1.05;;;4.00;99.90;;;;;;5089432;23;20244;-88
2023/11/09 00:53:16;;;;;;;1.25;1.15;;;4.30;99.90;;;;;;5318196;23;20242;-88
2023/11/09 00:55:43;;;;;;;0.85;0.85;;;4.10;99.90;;;;;;5123278;23;20237;-88
2023/11/09 00:58:10;;;;;;;1.08;1.08;;;4.00;99.90;;;;;;5008968;28;20216;-90
2023/11/09 01:00:37;;;;;;;0.63;0.63;;;4.00;99.90;;;;;;5001310;28;20254;-87
2023/11/09 01:03:06;;;;;;;0.80;0.80;;;4.30;99.90;;;;;;5005292;28;20221;-93
2023/11/09 01:10:48;;;;;;;1.88;1.77;;;3.70;99.90;;;;;;5301142;23;20284;-89
2023/11/09 01:13:15;;;;;;;2.08;1.88;;;3.70;99.90;;;;;;5554003;23;20262;-91
2023/11/09 01:15:42;;;;;;;1.23;1.23;;;3.80;99.90;;;;;;5235909;23;20276;-88
2023/11/09 01:18:11;;;;;;;1.58;1.05;;;3.80;99.90;;;;;;5704528;23;20245;-90
2023/11/09 01:34:12;;;;;;;2.08;1.98;;;3.60;99.90;;;;;;5724543;23;20389;-88
2023/11/09 01:36:42;;;;;;;1.40;1.40;;;3.60;99.90;;;;;;5587530;23;20206;-88
2023/11/09 01:41:45;;;;;;;1.70;1.60;;;3.50;99.90;;;;;;5802144;23;20240;-89
2023/11/09 02:00:17;;;;;;;0.60;0.60;;;3.50;99.90;;;;;;5322700;23;20236;-86
2023/11/09 02:13:25;;;;;;;1.88;1.77;;;3.60;99.90;;;;;;5524233;23;20258;-90
2023/11/09 02:15:54;;;;;;;4.30;1.63;;;3.80;99.90;;;;;;5765154;23;20461;-90
2023/11/09 02:18:22;;;;;;;0.60;0.60;;;3.70;99.90;;;;;;5134909;23;20296;-88
2023/11/09 02:20:52;;;;;;;0.85;0.85;;;3.80;99.90;;;;;;5500625;23;20224;-88
2023/11/09 02:23:25;;;;;;;8.68;2.50;;;3.70;99.90;;;;;;5471899;23;21355;-88
2023/11/09 02:25:53;;;;;;;0.73;0.73;;;3.80;99.90;;;;;;5730149;23;20246;-87
2023/11/09 02:30:56;;;;;;;0.60;0.60;;;3.50;99.90;;;;;;5245634;23;20199;-87
2023/11/09 02:33:23;;;;;;;1.20;1.20;;;3.50;99.90;;;;;;5087917;23;20233;-88
2023/11/09 02:35:51;;;;;;;3.42;3.20;;;3.60;99.90;;;;;;5020438;28;20201;-85
2023/11/09 02:38:18;;;;;;;0.60;0.60;;;3.50;99.90;;;;;;5194046;23;20218;-85
2023/11/09 02:40:45;;;;;;;0.85;0.85;;;3.30;99.90;;;;;;5171048;23;20241;-86
2023/11/09 02:43:12;;;;;;;0.60;0.60;;;3.40;99.90;;;;;;5022261;28;20175;-87
2023/11/09 02:45:41;;;;;;;1.13;1.13;;;3.30;99.90;;;;;;5014698;28;20178;-86
2023/11/09 02:48:08;;;;;;;1.17;1.17;;;3.20;99.90;;;;;;5020233;28;20187;-89
2023/11/09 02:55:56;;;;;;;0.63;0.63;;;3.20;99.90;;;;;;5522152;23;20225;-89
2023/11/09 02:58:23;;;;;;;0.40;0.40;;;3.20;99.90;;;;;;5033903;28;20251;-90
2023/11/09 03:00:51;;;;;;;2.55;2.35;;;3.30;99.90;;;;;;5125789;23;20238;-88
2023/11/09 03:03:18;;;;;;;0.50;0.50;;;3.30;99.90;;;;;;5070479;23;20241;-88
2023/11/09 03:05:45;;;;;;;0.73;0.73;;;3.10;99.90;;;;;;5178530;23;20232;-90
2023/11/09 03:08:13;;;;;;;0.93;0.93;;;3.50;99.90;;;;;;5184794;23;20246;-91
2023/11/09 03:10:40;;;;;;;0.60;0.60;;;3.20;99.90;;;;;;5131529;23;20266;-89
2023/11/09 03:13:07;;;;;;;0.80;0.80;;;3.30;99.90;;;;;;5349076;23;20220;-89
2023/11/09 03:15:35;;;;;;;1.55;1.45;;;3.40;99.90;;;;;;5002468;28;20450;-91
2023/11/09 03:18:15;;;;;;;3.13;1.67;;;3.70;99.90;;;;;;5011458;28;20205;-90
2023/11/09 03:20:44;;;;;;;0.50;0.50;;;3.80;99.90;;;;;;5006436;28;20218;-90
2023/11/09 03:23:11;;;;;;;0.93;0.93;;;3.70;99.90;;;;;;5139331;23;20245;-89
2023/11/09 03:25:39;;;;;;;0.63;0.63;;;4.00;99.90;;;;;;5019899;28;20187;-91
2023/11/09 03:28:06;;;;;;;4.15;3.17;;;4.10;99.90;;;;;;5036956;28;20200;-90
2023/11/09 03:30:35;;;;;;;1.23;1.13;;;4.10;99.90;;;;;;5171662;23;20244;-89
2023/11/09 03:33:02;;;;;;;0.52;0.52;;;3.90;99.90;;;;;;4996677;28;20273;-88
2023/11/09 03:35:30;;;;;;;0.70;0.70;;;4.00;99.90;;;;;;5004977;28;20237;-88
2023/11/09 03:37:57;;;;;;;0.80;0.75;;;4.00;99.90;;;;;;5010808;28;20213;-87
2023/11/09 03:40:27;;;;;;;1.05;1.05;;;3.90;99.90;;;;;;5160575;23;20503;-91
2023/11/09 03:42:54;;;;;;;3.03;1.70;;;3.80;99.90;;;;;;5246704;23;20252;-88
2023/11/09 03:45:33;;;;;;;0.93;0.93;;;3.90;99.90;;;;;;4968053;28;20210;-89
2023/11/09 03:48:00;;;;;;;0.82;0.82;;;4.10;99.90;;;;;;4962622;28;20245;-86
2023/11/09 03:53:08;;;;;;;1.77;1.67;;;4.00;99.90;;;;;;5080414;23;20235;-87
2023/11/09 03:55:36;;;;;;;0.75;0.75;;;4.10;99.90;;;;;;4986520;28;20215;-91
2023/11/09 03:58:05;;;;;;;0.60;0.60;;;4.00;99.90;;;;;;4984742;28;20191;-86
2023/11/09 04:00:33;;;;;;;1.00;1.00;;;4.00;99.90;;;;;;4991823;28;20175;-91
2023/11/09 04:03:00;;;;;;;0.40;0.40;;;3.90;99.90;;;;;;5064699;23;20226;-90
2023/11/09 04:05:28;;;;;;;1.08;1.08;;;3.90;99.90;;;;;;5009133;28;20213;-88
2023/11/09 04:07:55;;;;;;;0.93;0.93;;;4.10;99.90;;;;;;4999020;28;20207;-89
2023/11/09 04:10:23;;;;;;;1.05;1.05;;;4.00;99.90;;;;;;4996609;28;20411;-88
2023/11/09 04:12:50;;;;;;;1.05;1.05;;;4.10;99.90;;;;;;4997106;28;20230;-86
2023/11/09 04:15:17;;;;;;;1.38;1.10;;;4.10;99.90;;;;;;4999717;28;20290;-86
2023/11/09 04:17:45;;;;;;;0.90;0.90;;;4.30;99.90;;;;;;4997414;28;20241;-85
2023/11/09 04:20:12;;;;;;;0.80;0.80;;;4.20;99.90;;;;;;5004078;28;20217;-86
2023/11/09 04:22:39;;;;;;;1.98;1.88;;;4.20;99.90;;;;;;5018129;28;20185;-87
2023/11/09 04:25:07;;;;;;;1.17;1.13;;;4.40;99.90;;;;;;5000885;28;20222;-89
2023/11/09 04:30:15;;;;;;;0.50;0.40;;;4.10;99.90;;;;;;5004566;28;20230;-89
2023/11/09 04:32:43;;;;;;;0.90;0.90;;;4.20;99.90;;;;;;4994099;28;20391;-86
2023/11/09 04:35:10;;;;;;;1.15;1.05;;;4.00;99.90;;;;;;5001431;28;20289;-87
2023/11/09 04:37:38;;;;;;;0.60;0.60;;;4.60;99.90;;;;;;4995171;28;20202;-86
2023/11/09 04:40:14;;;;;;;0.70;0.70;;;4.10;99.90;;;;;;4999001;28;20243;-87
2023/11/09 04:42:44;;;;;;;1.55;1.20;;;4.20;99.90;;;;;;4994771;28;20255;-90
2023/11/09 04:45:12;;;;;;;1.25;1.08;;;4.30;99.90;;;;;;5013430;28;20194;-87
2023/11/09 04:47:43;;;;;;;0.55;0.55;;;4.10;99.90;;;;;;5018885;28;20192;-88
2023/11/09 04:50:15;;;;;;;0.70;0.70;;;4.20;99.90;;;;;;5001898;28;20265;-84
2023/11/09 04:52:52;;;;;;;1.20;1.20;;;4.40;99.90;;;;;;5008668;28;20228;-86
2023/11/09 04:55:31;;;;;;;0.50;0.50;;;4.20;99.90;;;;;;5003052;28;20221;-89
2023/11/09 05:09:06;;;;;;;1.00;1.00;;;4.20;99.90;;;;;;5004224;28;20197;-88
2023/11/09 05:11:33;;;;;;;1.27;1.27;;;4.30;99.90;;;;;;4998988;28;20233;-89
2023/11/09 05:14:03;;;;;;;0.52;0.52;;;4.00;99.90;;;;;;4996141;28;20202;-91
2023/11/09 05:16:31;;;;;;;0.82;0.82;;;4.30;99.90;;;;;;4999824;28;20240;-87
2023/11/09 05:18:58;;;;;;;2.08;1.98;;;4.30;99.90;;;;;;5006540;28;20206;-87
2023/11/09 05:21:25;;;;;;;0.60;0.60;;;4.70;99.90;;;;;;4992406;28;20211;-88
2023/11/09 05:23:53;;;;;;;0.60;0.60;;;4.30;99.90;;;;;;4995179;28;20206;-87
2023/11/09 05:26:21;;;;;;;0.95;0.95;;;4.20;99.90;;;;;;4997099;28;20242;-85
2023/11/09 05:28:50;;;;;;;0.55;0.55;;;4.30;99.90;;;;;;4994840;28;20211;-90
2023/11/09 05:31:23;;;;;;;1.15;1.15;;;4.10;99.90;;;;;;4998766;28;20265;-91
2023/11/09 05:33:56;;;;;;;0.75;0.75;;;4.00;99.90;;;;;;4987422;28;20240;-90
2023/11/09 05:36:23;;;;;;;0.98;0.98;;;4.00;99.90;;;;;;5000793;28;20235;-92
2023/11/09 05:38:52;;;;;;;0.60;0.60;;;3.90;99.90;;;;;;5004932;28;20203;-90
2023/11/09 05:41:20;;;;;;;0.50;0.50;;;3.90;99.90;;;;;;4992700;28;20661;-89
2023/11/09 05:43:47;;;;;;;2.30;2.10;;;4.00;99.90;;;;;;4992793;28;20218;-90
2023/11/09 05:46:15;;;;;;;0.80;0.80;;;4.10;99.90;;;;;;5002655;28;20193;-90
2023/11/09 05:48:43;;;;;;;0.93;0.93;;;4.30;99.90;;;;;;4993070;28;20245;-87
2023/11/09 05:51:10;;;;;;;0.40;0.40;;;4.10;99.90;;;;;;4988441;28;20201;-89
2023/11/09 05:56:11;;;;;;;2.25;2.15;;;4.00;99.90;;;;;;4990811;28;20381;-88
2023/11/09 05:58:38;;;;;;;1.33;1.20;;;4.20;99.90;;;;;;4993313;28;20219;-92
2023/11/09 06:01:08;;;;;;;1.27;0.98;;;4.20;99.90;;;;;;4995881;28;20205;-90
2023/11/09 06:03:45;;;;;;;1.33;1.33;;;4.10;99.90;;;;;;5006911;28;20193;-90
2023/11/09 06:06:16;;;;;;;0.63;0.63;;;4.10;99.90;;;;;;4997803;28;20198;-88
2023/11/09 06:08:46;;;;;;;1.52;1.10;;;4.10;99.90;;;;;;5210677;23;20343;-87
2023/11/09 06:11:17;;;;;;;1.30;1.20;;;4.20;99.90;;;;;;4996058;28;20190;-92
2023/11/09 06:13:51;;;;;;;0.60;0.60;;;4.10;99.90;;;;;;5108602;23;20230;-88
2023/11/09 06:16:25;;;;;;;0.80;0.80;;;4.00;99.90;;;;;;5024741;28;20217;-87
2023/11/09 06:18:56;;;;;;;3.70;1.25;;;4.20;99.90;;;;;;5199036;23;20235;-91
2023/11/09 06:21:29;;;;;;;0.73;0.73;;;4.40;99.90;;;;;;5294371;23;20454;-89
2023/11/09 06:23:57;;;;;;;0.50;0.50;;;4.40;99.90;;;;;;5014719;28;20202;-83
2023/11/09 06:26:24;;;;;;;0.73;0.73;;;4.50;99.90;;;;;;4998098;28;20233;-86
2023/11/09 06:28:52;;;;;;;1.02;1.02;;;4.50;99.90;;;;;;5000158;28;20209;-86
2023/11/09 06:31:22;;;;;;;0.60;0.60;;;4.70;99.90;;;;;;5007475;28;20281;-87
2023/11/09 06:33:51;;;;;;;0.85;0.85;;;4.70;99.90;;;;;;5005262;28;20233;-88
2023/11/09 06:36:23;;;;;;;0.50;0.50;;;4.70;99.90;;;;;;5000237;28;20225;-90
2023/11/09 06:38:50;;;;;;;0.85;0.85;;;5.00;99.90;;;;;;4997410;28;20282;-88
2023/11/09 06:41:21;;;;;;;0.50;0.50;;;4.90;99.90;;;;;;4990503;28;20194;-90
2023/11/09 06:43:48;;;;;;;0.50;0.50;;;5.10;99.90;;;;;;5001270;28;20225;-84
2023/11/09 06:46:15;;;;;;;0.50;0.50;;;5.10;99.90;;;;;;4999764;28;20210;-88
2023/11/09 06:48:43;;;;;;;0.60;0.60;;;5.40;99.90;;;;;;5004853;28;20533;-88
2023/11/09 06:51:10;;;;;;;0.80;0.80;;;5.40;99.90;;;;;;4988637;28;20367;-83
2023/11/09 06:53:37;;;;;;;0.90;0.90;;;5.60;99.90;;;;;;4986617;28;20490;-84
2023/11/09 06:56:05;;;;;;;0.50;0.50;;;5.80;99.90;;;;;;4991550;28;20393;-83
2023/11/09 06:58:32;;;;;;;35.45;2.65;;;5.90;99.90;;;;;;4996454;28;20444;-85
2023/11/09 07:00:59;;;;;;;0.65;0.65;;;6.10;99.90;;;;;;4998290;28;20201;-81
2023/11/09 07:03:26;;;;;;;0.77;0.77;;;6.10;99.90;;;;;;4994197;28;20459;-82
2023/11/09 07:05:54;;;;;;;1.75;1.65;;;6.30;99.90;;;;;;4986709;28;20267;-88
2023/11/09 07:08:28;;;;;;;0.70;0.70;;;6.50;99.90;;;;;;5001850;28;20214;-85
2023/11/09 07:10:58;;;;;;;0.90;0.90;;;6.90;99.90;;;;;;4994147;28;20203;-83
2023/11/09 07:13:25;;;;;;;0.60;0.60;;;6.80;99.90;;;;;;4991661;28;20222;-86
2023/11/09 07:15:52;;;;;;;0.93;0.93;;;6.80;99.90;;;;;;5003856;28;20544;-84
2023/11/09 07:18:21;;;;;;;0.55;0.55;;;6.80;99.90;;;;;;4988613;28;20423;-85
2023/11/09 07:20:48;;;;;;;0.50;0.50;;;6.90;99.90;;;;;;4998654;28;20277;-85
2023/11/09 07:23:29;;;;;;;0.50;0.50;;;6.90;99.90;;;;;;5000411;28;20238;-85
2023/11/09 07:25:58;;;;;;;0.60;0.60;;;7.00;99.90;;;;;;5006097;28;20185;-89
2023/11/09 07:28:28;;;;;;;0.95;0.95;;;7.50;99.90;;;;;;4994468;28;20206;-84
2023/11/09 07:31:00;;;;;;;0.63;0.63;;;7.80;99.90;;;;;;4994441;28;20202;-89
2023/11/09 07:33:31;;;;;;;0.70;0.70;;;8.20;99.90;;;;;;4994659;28;20367;-87
2023/11/09 07:36:49;;;;;;;0.60;0.60;;;9.30;99.90;;;;;;5103855;27;20607;-84
2023/11/09 07:39:16;;;;;;;0.70;0.70;;;10.50;99.90;;;;;;5084446;28;20488;-88
2023/11/09 07:41:44;;;;;;;0.65;0.65;;;10.80;99.90;;;;;;5082527;28;20208;-88
2023/11/09 07:44:11;;;;;;;0.80;0.80;;;11.10;99.90;;;;;;5092994;28;20421;-88
2023/11/09 07:46:40;;;;;;;1.00;1.00;;;10.20;99.90;;;;;;5083617;28;20196;-87
2023/11/09 07:49:10;;;;;;;1.45;1.35;;;9.30;99.90;;;;;;5102522;28;20194;-82
2023/11/09 07:51:37;;;;;;;0.60;0.60;;;8.50;99.90;;;;;;5092044;28;20222;-85
2023/11/09 07:54:08;;;;;;;0.60;0.60;;;8.20;99.90;;;;;;5108540;28;20191;-83
2023/11/09 07:56:35;;;;;;;0.60;0.60;;;8.20;99.90;;;;;;5112811;28;20227;-86
2023/11/09 07:59:03;;;;;;;0.60;0.60;;;8.20;99.90;;;;;;5082874;28;20187;-86
2023/11/09 08:01:30;;;;;;;0.50;0.50;;;8.20;99.90;;;;;;5083716;28;20226;-87
2023/11/09 08:03:58;;;;;;;0.50;0.50;;;8.30;99.90;;;;;;5089618;28;20261;-83
2023/11/09 08:06:26;;;;;;;0.70;0.70;;;8.40;99.90;;;;;;5091111;28;20202;-87
2023/11/09 08:08:53;;;;;;;0.60;0.60;;;8.60;99.90;;;;;;5082677;28;20203;-86
2023/11/09 08:11:20;;;;;;;0.50;0.50;;;8.50;99.90;;;;;;5091846;28;20221;-89
2023/11/09 08:13:48;;;;;;;0.50;0.50;;;8.50;99.90;;;;;;5110068;28;20214;-87
2023/11/09 08:16:15;;;;;;;0.60;0.60;;;8.70;99.90;;;;;;5091133;28;20252;-87
2023/11/09 08:18:43;;;;;;;0.65;0.65;;;8.90;99.90;;;;;;5088860;28;20218;-87
2023/11/09 08:21:10;;;;;;;0.60;0.60;;;9.40;99.90;;;;;;5081154;28;20500;-85
2023/11/09 08:23:37;;;;;;;0.60;0.60;;;9.50;99.90;;;;;;5092075;28;20267;-88
2023/11/09 08:26:05;;;;;;;0.57;0.57;;;9.40;99.90;;;;;;5083983;28;20203;-89
2023/11/09 08:28:33;;;;;;;0.82;0.82;;;9.50;99.90;;;;;;5089891;28;20211;-86
2023/11/09 08:31:00;;;;;;;0.60;0.60;;;9.70;99.90;;;;;;5087714;28;20195;-87
2023/11/09 08:33:27;;;;;;;0.60;0.60;;;10.20;99.90;;;;;;5087610;28;20213;-88
2023/11/09 08:35:55;;;;;;;0.60;0.60;;;10.50;99.90;;;;;;5102473;28;20223;-86
2023/11/09 08:38:23;;;;;;;0.80;0.80;;;10.60;99.90;;;;;;5087172;28;20204;-88
2023/11/09 08:40:51;;;;;;;0.73;0.73;;;10.70;99.90;;;;;;5084821;28;20200;-84
2023/11/09 08:43:19;;;;;;;0.60;0.60;;;10.90;99.90;;;;;;5084999;28;20201;-90
2023/11/09 08:45:46;;;;;;;0.60;0.60;;;11.10;99.90;;;;;;5081613;28;20532;-88
2023/11/09 08:48:14;;;;;;;0.60;0.60;;;11.10;99.90;;;;;;5070464;28;20204;-88
2023/11/09 08:50:41;;;;;;;0.60;0.60;;;10.40;99.90;;;;;;5078260;28;20204;-89
2023/11/09 08:53:08;;;;;;;0.70;0.70;;;10.00;99.90;;;;;;5070445;28;20215;-86
2023/11/09 08:55:35;;;;;;;0.60;0.60;;;10.00;99.90;;;;;;5098260;28;20222;-85
2023/11/09 08:58:03;;;;;;;3.78;1.73;;;9.90;99.90;;;;;;5081834;28;20203;-88
2023/11/09 09:00:32;;;;;;;0.80;0.80;;;10.00;99.90;;;;;;5102020;28;20224;-89
2023/11/09 09:03:01;;;;;;;0.60;0.60;;;9.90;99.90;;;;;;5077521;28;20192;-88
2023/11/09 09:05:28;;;;;;;0.70;0.70;;;9.90;99.90;;;;;;5073461;28;20191;-85
2023/11/09 09:07:59;;;;;;;1.75;1.25;;;10.20;99.90;;;;;;5077307;28;20204;-86
2023/11/09 09:10:30;;;;;;;0.80;0.80;;;10.00;99.90;;;;;;5067231;28;20208;-88
2023/11/09 09:12:59;;;;;;;0.80;0.80;;;10.00;99.90;;;;;;5080205;28;20550;-85
2023/11/09 09:15:28;;;;;;;0.70;0.70;;;10.10;99.90;;;;;;5078249;28;20223;-85
2023/11/09 09:17:58;;;;;;;1.25;1.15;;;10.30;99.90;;;;;;5074009;28;20215;-87
2023/11/09 09:20:27;;;;;;;0.60;0.60;;;10.20;99.90;;;;;;5074131;28;20241;-85
2023/11/09 09:22:59;;;;;;;0.60;0.60;;;10.30;99.90;;;;;;5089653;28;20219;-85
2023/11/09 09:25:28;;;;;;;1.33;1.25;;;10.50;99.90;;;;;;5078146;28;20187;-90
2023/11/09 09:27:57;;;;;;;0.70;0.70;;;10.40;99.90;;;;;;5079201;28;20471;-86
2023/11/09 09:30:26;;;;;;;0.60;0.60;;;10.50;99.90;;;;;;5084995;28;20253;-84
2023/11/09 09:32:59;;;;;;;1.17;1.17;;;10.40;99.90;;;;;;5085063;28;20196;-88
2023/11/09 09:35:28;;;;;;;0.70;0.70;;;10.50;99.90;;;;;;5074641;28;20262;-89
2023/11/09 09:38:08;;;;;;;0.70;0.70;;;10.50;99.90;;;;;;5080235;28;20203;-86
2023/11/09 09:40:36;;;;;;;0.60;0.60;;;10.70;99.90;;;;;;5076154;28;20270;-88
2023/11/09 09:43:17;;;;;;;1.88;1.77;;;10.80;99.90;;;;;;5075965;28;20267;-87
2023/11/09 09:45:46;;;;;;;0.80;0.80;;;10.80;99.90;;;;;;5076281;28;20475;-87
2023/11/09 09:48:15;;;;;;;1.55;1.45;;;10.80;99.90;;;;;;5069636;28;20207;-85
2023/11/09 09:50:43;;;;;;;0.90;0.90;;;10.80;99.90;;;;;;5074740;28;20203;-85
2023/11/09 09:53:11;;;;;;;0.70;0.70;;;10.60;99.90;;;;;;5076756;28;20199;-87
2023/11/09 09:55:40;;;;;;;0.60;0.60;;;10.60;99.90;;;;;;5076335;28;20367;-88
2023/11/09 09:58:08;;;;;;;0.73;0.73;;;10.70;99.90;;;;;;5083501;28;20212;-87
2023/11/09 10:00:39;;;;;;;0.80;0.80;;;10.90;99.90;;;;;;5080062;28;20200;-86
2023/11/09 10:03:06;;;;;;;1.00;1.00;;;10.80;99.90;;;;;;5095420;28;20295;-88
2023/11/09 10:05:35;;;;;;;0.68;0.68;;;10.90;99.90;;;;;;5078594;28;20270;-88
2023/11/09 10:08:08;;;;;;;0.50;0.50;;;10.90;99.90;;;;;;5079559;28;20263;-86
2023/11/09 10:10:38;;;;;;;0.70;0.70;;;11.00;99.90;;;;;;5067625;28;20290;-87
2023/11/09 10:13:07;;;;;;;2.65;2.45;;;11.00;99.90;;;;;;5080709;28;20233;-87
2023/11/09 10:15:35;;;;;;;0.60;0.60;;;11.10;99.90;;;;;;5095164;28;20535;-91
2023/11/09 10:18:03;;;;;;;2.58;2.47;;;11.20;99.90;;;;;;5089529;28;20289;-85
2023/11/09 10:20:32;;;;;;;1.13;1.13;;;11.40;99.90;;;;;;5079052;28;20269;-87
2023/11/09 10:23:08;;;;;;;0.80;0.80;;;11.50;99.90;;;;;;5073723;28;20234;-88
2023/11/09 10:25:36;;;;;;;1.05;1.05;;;11.60;99.90;;;;;;5085356;28;20267;-90
2023/11/09 10:28:07;;;;;;;5.95;1.75;;;11.40;99.90;;;;;;5083969;28;20208;-88
2023/11/09 10:30:41;;;;;;;0.60;0.60;;;11.70;99.90;;;;;;5076469;28;20204;-83
2023/11/09 10:33:09;;;;;;;0.75;0.75;;;11.60;99.90;;;;;;5075311;28;20238;-84
2023/11/09 10:35:38;;;;;;;0.70;0.70;;;11.70;99.90;;;;;;5070420;28;20235;-86
2023/11/09 10:40:37;;;;;;;0.80;0.80;;;11.70;99.90;;;;;;5025968;28;20232;-90
2023/11/09 10:43:14;;;;;;;2.25;2.15;;;11.60;99.90;;;;;;5029302;28;20209;-89
2023/11/09 10:45:45;;;;;;;0.80;0.80;;;11.80;99.90;;;;;;5021076;28;20253;-84
2023/11/09 10:48:17;;;;;;;0.63;0.63;;;11.80;99.90;;;;;;5027706;28;20232;-88
2023/11/09 10:50:47;;;;;;;1.52;1.48;;;12.00;99.90;;;;;;5203058;22;21596;-89
2023/11/09 10:53:18;;;;;;;2.22;1.55;;;11.90;99.90;;;;;;5082860;28;20192;-86
2023/11/09 10:55:53;;;;;;;0.70;0.70;;;11.90;99.90;;;;;;5079294;28;20216;-89
2023/11/09 10:58:21;;;;;;;1.65;1.65;;;12.10;99.90;;;;;;5060892;28;20200;-90
2023/11/09 11:01:02;;;;;;;0.82;0.82;;;12.00;99.90;;;;;;5088148;28;20203;-90
2023/11/09 11:03:40;;;;;;;0.60;0.60;;;11.90;99.90;;;;;;5076678;28;20268;-85
2023/11/09 11:06:16;;;;;;;1.55;1.48;;;11.80;99.90;;;;;;5087981;28;20234;-86
2023/11/09 11:08:47;;;;;;;0.60;0.60;;;11.80;99.90;;;;;;5058493;28;20198;-89
2023/11/09 11:11:25;;;;;;;1.42;1.33;;;11.90;99.90;;;;;;5064497;28;20258;-90
2023/11/09 11:14:02;;;;;;;1.00;1.00;;;11.80;99.90;;;;;;5063937;28;20202;-89
2023/11/09 11:16:56;;;;;;;0.70;0.70;;;11.90;99.90;;;;;;5069616;28;20207;-84
2023/11/09 11:19:50;;;;;;;3.45;3.25;;;12.00;99.90;;;;;;5064025;28;20240;-87
2023/11/09 11:22:31;;;;;;;0.80;0.80;;;12.00;99.90;;;;;;5069132;28;20204;-87
2023/11/09 11:25:36;;;;;;;0.90;0.90;;;11.80;99.90;;;;;;5080346;28;20191;-83
2023/11/09 11:28:06;;;;;;;0.70;0.70;;;12.10;99.90;;;;;;5048381;28;20220;-89
2023/11/09 11:30:38;;;;;;;0.90;0.90;;;12.20;99.90;;;;;;5060859;28;20260;-88
2023/11/09 11:33:11;;;;;;;1.15;1.15;;;12.40;99.90;;;;;;5083233;28;20203;-88
2023/11/09 11:35:43;;;;;;;0.77;0.77;;;12.30;99.90;;;;;;5077484;28;20291;-86
2023/11/09 11:38:13;;;;;;;1.42;1.38;;;12.50;99.90;;;;;;5068370;28;20231;-87
2023/11/09 11:40:51;;;;;;;0.70;0.70;;;12.50;99.90;;;;;;5077798;28;20195;-84
2023/11/09 11:43:20;;;;;;;0.85;0.85;;;12.50;99.90;;;;;;5057606;28;20183;-87
2023/11/09 11:45:49;;;;;;;1.65;1.65;;;12.60;99.90;;;;;;5084117;28;20233;-84
2023/11/09 11:48:28;;;;;;;1.10;1.10;;;12.60;99.90;;;;;;5070244;28;20234;-89
2023/11/09 11:50:55;;;;;;;1.80;1.70;;;12.60;99.90;;;;;;5077192;28;20212;-87
2023/11/09 11:53:30;;;;;;;0.80;0.80;;;12.70;99.90;;;;;;5063150;28;20234;-88
2023/11/09 11:55:58;;;;;;;2.47;1.30;;;12.70;99.90;;;;;;5061806;28;20290;-89
2023/11/09 11:58:58;;;;;;;1.20;1.20;;;12.80;99.90;;;;;;5074824;28;20212;-87
2023/11/09 12:01:33;;;;;;;1.00;1.00;;;13.00;99.90;;;;;;5054279;28;20263;-89
2023/11/09 12:04:06;;;;;;;0.70;0.70;;;13.00;99.90;;;;;;5056630;28;20196;-87
2023/11/09 12:06:37;;;;;;;0.80;0.80;;;12.90;99.90;;;;;;5068394;28;20208;-90
2023/11/09 12:09:09;;;;;;;0.60;0.60;;;12.90;99.90;;;;;;5062528;28;20199;-87
2023/11/09 12:11:47;;;;;;;0.60;0.60;;;12.90;99.90;;;;;;5057826;28;20222;-85
2023/11/09 12:14:18;;;;;;;0.70;0.70;;;12.70;99.90;;;;;;5080522;28;20214;-85
2023/11/09 12:16:47;;;;;;;0.70;0.70;;;12.90;99.90;;;;;;5072042;28;20235;-86
2023/11/09 12:19:15;;;;;;;0.70;0.70;;;12.70;99.90;;;;;;5068224;28;20236;-86
2023/11/09 12:21:48;;;;;;;0.70;0.70;;;12.50;99.90;;;;;;5067518;28;20224;-89
2023/11/09 12:24:21;;;;;;;0.70;0.70;;;12.50;99.90;;;;;;5056963;28;20228;-87
2023/11/09 12:27:10;;;;;;;0.70;0.70;;;12.50;99.90;;;;;;5071277;28;20188;-87
2023/11/09 12:29:41;;;;;;;0.70;0.70;;;12.50;99.90;;;;;;5073905;28;20219;-90
2023/11/09 12:32:11;;;;;;;0.93;0.93;;;12.40;99.90;;;;;;5068636;28;20207;-90
2023/11/09 12:34:41;;;;;;;3.05;1.75;;;12.50;99.90;;;;;;5071628;28;20276;-87
2023/11/09 12:37:14;;;;;;;0.70;0.70;;;12.50;99.90;;;;;;5083287;28;20216;-86
2023/11/09 12:39:43;;;;;;;0.80;0.80;;;12.50;99.90;;;;;;5069927;28;20216;-86
2023/11/09 12:42:11;;;;;;;1.85;1.77;;;12.40;99.90;;;;;;5073250;28;20208;-86
2023/11/09 12:44:42;;;;;;;0.90;0.90;;;12.40;99.90;;;;;;5081994;28;20204;-87
2023/11/09 12:47:11;;;;;;;2.10;2.00;;;12.30;99.90;;;;;;5085305;28;20218;-89
2023/11/09 12:49:45;;;;;;;1.20;1.20;;;12.50;99.90;;;;;;5063706;28;20273;-87
2023/11/09 12:52:12;;;;;;;1.00;1.00;;;12.30;99.90;;;;;;5203709;22;20231;-89
2023/11/09 12:54:40;;;;;;;2.35;1.70;;;12.40;99.90;;;;;;5057984;28;20209;-83
2023/11/09 12:57:08;;;;;;;0.75;0.75;;;12.50;99.90;;;;;;5058480;28;20228;-89
2023/11/09 12:59:41;;;;;;;0.80;0.80;;;12.50;99.90;;;;;;5045108;28;20216;-89
2023/11/09 13:02:17;;;;;;;0.93;0.93;;;12.40;99.90;;;;;;5051601;28;20208;-82
2023/11/09 13:04:48;;;;;;;0.80;0.80;;;12.70;99.90;;;;;;5058496;28;20219;-88
2023/11/09 13:07:16;;;;;;;0.68;0.68;;;12.60;99.90;;;;;;5035001;28;20207;-87
2023/11/09 13:09:46;;;;;;;0.70;0.70;;;12.80;99.90;;;;;;5030157;28;20213;-90
2023/11/09 13:12:27;;;;;;;0.90;0.90;;;13.00;99.90;;;;;;5049501;28;20509;-87
2023/11/09 13:17:51;;;;;;;1.00;1.00;;;12.80;99.90;;;;;;5051423;28;20240;-86
2023/11/09 13:20:28;;;;;;;1.20;1.15;;;12.80;99.90;;;;;;5051027;28;20185;-88
2023/11/09 13:23:05;;;;;;;0.93;0.93;;;12.70;99.90;;;;;;5045326;28;20193;-87
2023/11/09 13:25:39;;;;;;;1.60;1.50;;;12.70;99.90;;;;;;5058200;28;20197;-88
2023/11/09 13:28:16;;;;;;;0.65;0.65;;;12.70;99.90;;;;;;5063521;28;20187;-88
2023/11/09 13:30:52;;;;;;;0.90;0.90;;;12.60;99.90;;;;;;5043894;28;20180;-85
2023/11/09 13:36:10;;;;;;;1.10;1.10;;;12.50;99.90;;;;;;5081214;28;20219;-88
2023/11/09 13:46:25;;;;;;;1.35;1.27;;;12.50;99.90;;;;;;5019242;28;20198;-88
2023/11/09 13:48:55;;;;;;;0.95;0.95;;;12.50;99.90;;;;;;4998429;28;20201;-90
2023/11/09 13:51:29;;;;;;;2.65;2.45;;;12.30;99.90;;;;;;5015049;28;20225;-88
2023/11/09 13:57:17;;;;;;;0.90;0.90;;;11.90;99.90;;;;;;5018627;28;20252;-88
2023/11/09 14:00:12;;;;;;;1.00;1.00;;;12.00;99.90;;;;;;5012644;28;20210;-87
2023/11/09 14:02:34;;;;;;;1.00;1.00;;;11.80;99.90;;;;;;5014633;28;20210;-88
2023/11/09 14:05:07;;;;;;;0.70;0.70;;;11.50;99.90;;;;;;5010704;28;20189;-89
2023/11/09 14:07:42;;;;;;;0.70;0.70;;;11.60;99.90;;;;;;5011158;28;20593;-88
2023/11/09 14:10:13;;;;;;;1.02;1.02;;;11.40;99.90;;;;;;5027462;28;20206;-87
2023/11/09 14:12:52;;;;;;;0.80;0.80;;;11.40;99.90;;;;;;4997151;28;20269;-88
2023/11/09 14:15:26;;;;;;;1.02;1.02;;;11.30;99.90;;;;;;5025505;28;20214;-87
2023/11/09 14:18:02;;;;;;;1.60;1.50;;;11.30;99.90;;;;;;5004513;28;20218;-87
2023/11/09 14:20:33;;;;;;;0.70;0.70;;;11.20;99.90;;;;;;5010710;28;20202;-85
2023/11/09 14:23:03;;;;;;;0.60;0.60;;;11.20;99.90;;;;;;4997786;28;20190;-88
2023/11/09 14:25:35;;;;;;;1.27;1.27;;;11.20;99.90;;;;;;5012393;28;20637;-89
2023/11/09 14:28:02;;;;;;;0.82;0.82;;;11.00;99.90;;;;;;5009097;28;20193;-89
2023/11/09 14:30:32;;;;;;;0.90;0.90;;;10.90;99.90;;;;;;5027090;28;20197;-89
2023/11/09 14:33:02;;;;;;;1.45;1.45;;;10.90;99.90;;;;;;4981850;28;20727;-88
2023/11/09 14:35:31;;;;;;;0.63;0.63;;;10.90;99.90;;;;;;5028104;28;20251;-85
2023/11/09 14:38:04;;;;;;;0.80;0.80;;;10.90;99.90;;;;;;4992784;28;20219;-87
2023/11/09 14:40:35;;;;;;;2.05;1.95;;;10.80;99.90;;;;;;5006982;28;20510;-87
2023/11/09 14:43:05;;;;;;;1.10;1.10;;;10.70;99.90;;;;;;5005410;28;20194;-86
2023/11/09 14:45:40;;;;;;;0.85;0.85;;;10.50;99.90;;;;;;4993691;28;20286;-87
2023/11/09 14:48:10;;;;;;;1.30;1.30;;;10.50;99.90;;;;;;5006318;28;20217;-89
2023/11/09 14:50:41;;;;;;;0.70;0.70;;;10.40;99.90;;;;;;5015129;28;20202;-87
2023/11/09 14:55:41;;;;;;;0.70;0.70;;;10.30;99.90;;;;;;5019455;28;20194;-88
2023/11/09 14:58:16;;;;;;;1.58;1.58;;;10.20;99.90;;;;;;5169799;22;20245;-87
2023/11/09 15:00:45;;;;;;;0.80;0.80;;;10.00;99.90;;;;;;5016990;28;20186;-87
2023/11/09 15:03:18;;;;;;;1.17;1.08;;;10.00;99.90;;;;;;5002372;28;20266;-83
2023/11/09 15:05:53;;;;;;;0.60;0.60;;;10.00;99.90;;;;;;5119016;22;20225;-89
2023/11/09 15:08:26;;;;;;;1.27;1.20;;;9.90;99.90;;;;;;5252615;23;20237;-88
2023/11/09 15:10:56;;;;;;;1.38;1.27;;;9.70;99.90;;;;;;5017300;28;20186;-87
2023/11/09 15:13:27;;;;;;;1.08;1.08;;;9.80;99.90;;;;;;5034041;23;20217;-90
2023/11/09 15:16:04;;;;;;;0.85;0.85;;;9.60;99.90;;;;;;5067407;28;20191;-90
2023/11/09 15:18:34;;;;;;;1.25;1.25;;;9.50;99.90;;;;;;5081281;22;20228;-88
2023/11/09 15:21:05;;;;;;;1.90;1.80;;;9.40;99.90;;;;;;5052181;28;20245;-87